Time;durP1;ratioP1;P1;durP2;ratioP2;P2;SDS_P1;SDS_P2;PMS_P1;PMS_P2;Temp;Humidity;BMP_temperature;BMP_pressure;BME280_temperature;BME280_humidity;BME280_pressure;Samples;Min_cycle;Max_cycle;Signal;HPM_P1;HPM_P2
2023/07/04 00:02:10;;;;;;;4.85;2.42;;;;;;;23.19;60.62;100681.31;10388062;28;96702;-93
2023/07/04 00:07:16;;;;;;;4.45;2.47;;;;;;;23.16;60.74;100686.97;10396286;28;96821;-96
2023/07/04 00:12:21;;;;;;;5.20;2.40;;;;;;;23.14;60.70;100688.06;10397408;28;96675;-95
2023/07/04 00:17:27;;;;;;;3.83;1.85;;;;;;;23.01;60.99;100684.72;10394883;28;97075;-93
2023/07/04 00:22:33;;;;;;;3.45;1.85;;;;;;;22.93;61.36;100695.22;10376031;28;97339;-92
2023/07/04 00:27:45;;;;;;;3.55;2.30;;;;;;;22.79;62.03;100701.75;10395097;28;96865;-93
2023/07/04 00:32:50;;;;;;;4.88;2.00;;;;;;;22.79;61.86;100704.44;10396911;28;96763;-93
2023/07/04 00:37:55;;;;;;;3.97;2.30;;;;;;;22.78;61.96;100709.94;10394529;28;96510;-93
2023/07/04 00:43:04;;;;;;;4.53;1.92;;;;;;;22.82;61.56;100711.41;10364076;28;96817;-93
2023/07/04 00:48:08;;;;;;;4.32;2.00;;;;;;;22.90;61.48;100717.81;10355531;28;96574;-94
2023/07/04 00:53:13;;;;;;;3.45;2.20;;;;;;;22.89;61.25;100713.41;10360221;22;96792;-94
2023/07/04 00:58:18;;;;;;;3.72;2.17;;;;;;;22.85;61.25;100714.69;10336950;28;97100;-93
2023/07/04 01:03:24;;;;;;;4.35;1.63;;;;;;;22.60;62.31;100717.63;10337321;28;96944;-92
2023/07/04 01:08:34;;;;;;;4.45;2.20;;;;;;;22.47;62.80;100711.56;10356832;28;98508;-95
2023/07/04 01:13:44;;;;;;;5.10;2.17;;;;;;;22.42;62.83;100706.56;10350751;28;96574;-96
2023/07/04 01:18:49;;;;;;;5.43;2.00;;;;;;;22.30;63.24;100704.88;10320906;28;97543;-96
2023/07/04 01:24:03;;;;;;;3.35;2.42;;;;;;;22.16;63.98;100710.50;10326715;28;96908;-96
2023/07/04 01:29:11;;;;;;;2.83;1.93;;;;;;;22.18;63.67;100710.38;10324558;28;96784;-95
2023/07/04 01:34:18;;;;;;;5.85;2.83;;;;;;;22.16;63.44;100710.50;10363102;28;96649;-96
2023/07/04 01:39:25;;;;;;;5.93;2.45;;;;;;;22.12;63.60;100710.88;10371355;28;96708;-96
2023/07/04 01:44:30;;;;;;;5.57;2.60;;;;;;;22.08;63.71;100715.63;10367139;28;96587;-96
2023/07/04 01:49:33;;;;;;;3.40;2.40;;;;;;;22.12;63.81;100710.88;10344859;28;96734;-95
2023/07/04 01:54:37;;;;;;;4.20;2.20;;;;;;;22.11;63.79;100715.38;10368701;28;96859;-96
2023/07/04 01:59:41;;;;;;;5.53;3.10;;;;;;;22.02;63.91;100709.91;10371795;28;97227;-96
2023/07/04 02:04:44;;;;;;;4.35;2.20;;;;;;;22.06;63.73;100722.06;10361641;28;96701;-95
2023/07/04 02:09:48;;;;;;;4.30;2.50;;;;;;;21.88;64.00;100713.66;10332780;28;96618;-95
2023/07/04 02:15:09;;;;;;;4.00;2.58;;;;;;;21.91;63.98;100720.59;10332826;28;96891;-95
2023/07/04 02:20:19;;;;;;;5.45;2.78;;;;;;;21.83;63.97;100714.97;10331319;28;96461;-95
2023/07/04 02:25:43;;;;;;;4.78;2.53;;;;;;;21.71;64.43;100703.38;10332408;28;96556;-95
2023/07/04 02:31:00;;;;;;;3.58;2.50;;;;;;;21.74;64.31;100711.19;10330271;28;96634;-94
2023/07/04 02:36:06;;;;;;;4.90;2.58;;;;;;;21.68;64.22;100711.66;10319856;28;96673;-95
2023/07/04 02:41:14;;;;;;;5.03;2.80;;;;;;;21.74;64.37;100704.97;10344212;28;96996;-93
2023/07/04 02:46:22;;;;;;;3.72;2.45;;;;;;;21.52;64.79;100703.97;10356441;28;97043;-91
2023/07/04 02:51:32;;;;;;;3.83;2.80;;;;;;;21.86;64.23;100712.91;10370758;28;96694;-95
2023/07/04 02:56:46;;;;;;;4.82;2.50;;;;;;;21.84;63.63;100701.47;10358673;28;96698;-95
2023/07/04 03:02:19;;;;;;;5.43;3.03;;;;;;;21.83;63.88;100694.38;10329678;28;96763;-96
2023/07/04 03:07:25;;;;;;;4.20;3.10;;;;;;;21.80;64.06;100704.47;10320454;28;96720;-95
2023/07/04 03:12:30;;;;;;;6.07;3.63;;;;;;;21.55;65.34;100699.34;10311962;28;96568;-91
2023/07/04 03:17:37;;;;;;;4.97;3.30;;;;;;;21.71;64.89;100702.56;10309233;28;96751;-95
2023/07/04 03:22:42;;;;;;;5.82;3.03;;;;;;;21.67;65.39;100709.97;10307700;28;96710;-95
2023/07/04 03:27:47;;;;;;;5.28;3.35;;;;;;;21.53;66.11;100712.88;10306954;28;97642;-94
2023/07/04 03:32:53;;;;;;;;;;;;;;;21.75;66.64;100714.72;10312818;28;96766;-94
2023/07/04 03:37:58;;;;;;;4.50;3.25;;;;;;;21.78;65.40;100717.19;10311497;28;96906;-95
2023/07/04 03:43:03;;;;;;;4.65;3.25;;;;;;;21.94;64.92;100714.97;10315014;28;96632;-95
2023/07/04 03:48:13;;;;;;;5.05;3.00;;;;;;;22.05;65.02;100715.00;10333104;28;96562;-94
2023/07/04 03:53:18;;;;;;;4.97;2.80;;;;;;;21.95;65.02;100725.56;10354817;28;96924;-95
2023/07/04 03:58:23;;;;;;;4.63;3.22;;;;;;;22.11;64.66;100715.38;10360169;28;96689;-96
2023/07/04 04:03:37;;;;;;;5.53;3.35;;;;;;;22.16;64.41;100720.38;10368935;28;96607;-96
2023/07/04 04:08:44;;;;;;;5.20;3.50;;;;;;;22.07;64.85;100716.59;10324266;28;96616;-95
2023/07/04 04:13:55;;;;;;;6.18;3.45;;;;;;;21.95;64.97;100725.56;10320596;28;96564;-95
2023/07/04 04:19:08;;;;;;;5.05;3.20;;;;;;;21.91;65.19;100715.22;10319322;28;97257;-94
2023/07/04 04:24:27;;;;;;;5.40;3.75;;;;;;;21.98;64.94;100717.34;10332171;28;96711;-95
2023/07/04 04:29:32;;;;;;;5.45;3.20;;;;;;;21.97;64.91;100712.91;10323935;28;97300;-95
2023/07/04 04:34:42;;;;;;;6.20;3.78;;;;;;;21.89;65.07;100715.34;10325090;28;96572;-96
2023/07/04 04:39:46;;;;;;;4.85;3.05;;;;;;;22.12;64.65;100702.84;10348699;28;96712;-94
2023/07/04 04:44:54;;;;;;;4.63;3.08;;;;;;;21.92;65.01;100709.72;10368496;28;96537;-96
2023/07/04 04:50:05;;;;;;;5.05;3.20;;;;;;;21.89;65.34;100712.66;10339257;28;96481;-95
2023/07/04 04:55:17;;;;;;;4.88;2.65;;;;;;;21.94;64.86;100715.84;10331474;28;96726;-95
2023/07/04 05:00:22;;;;;;;5.10;2.88;;;;;;;21.95;64.85;100714.84;10331539;28;96808;-93
2023/07/04 05:05:32;;;;;;;5.05;3.15;;;;;;;21.95;64.94;100720.19;10318993;28;96821;-95
2023/07/04 05:10:37;;;;;;;5.07;3.00;;;;;;;21.92;65.15;100723.13;10317839;28;96713;-93
2023/07/04 05:15:42;;;;;;;5.97;3.67;;;;;;;21.90;65.54;100734.97;10320002;28;97249;-93
2023/07/04 05:20:49;;;;;;;;;;;;;;;21.64;66.74;100736.16;10314423;28;96769;-93
2023/07/04 05:26:03;;;;;;;4.20;2.95;;;;;;;21.42;66.56;100736.94;10310243;28;96716;-94
2023/07/04 05:31:09;;;;;;;4.73;2.97;;;;;;;21.30;66.96;100745.91;10306900;28;96817;-93
2023/07/04 05:36:23;;;;;;;4.38;2.85;;;;;;;21.36;66.70;100743.59;10306937;28;96512;-94
2023/07/04 05:41:33;;;;;;;4.28;2.55;;;;;;;21.44;66.40;100746.56;10314938;28;96633;-95
2023/07/04 05:46:39;;;;;;;3.90;2.80;;;;;;;21.45;66.51;100755.44;10325040;28;97490;-95
2023/07/04 05:51:48;;;;;;;4.25;2.80;;;;;;;21.54;66.24;100756.59;10346870;28;97636;-93
2023/07/04 05:56:57;;;;;;;3.95;2.75;;;;;;;21.62;66.10;100760.38;10376602;28;97037;-95
2023/07/04 06:02:02;;;;;;;3.20;2.13;;;;;;;21.62;65.80;100760.38;10390743;28;96977;-94
2023/07/04 06:07:10;;;;;;;;;;;;;;;21.61;66.02;100764.00;10371082;28;96713;-95
2023/07/04 06:12:15;;;;;;;3.17;2.42;;;;;;;21.67;65.79;100766.22;10363759;28;96739;-95
2023/07/04 06:17:20;;;;;;;3.97;2.50;;;;;;;21.73;65.47;100775.63;10364410;28;96839;-94
2023/07/04 06:22:30;;;;;;;3.58;2.08;;;;;;;21.85;65.20;100786.22;10370501;28;96724;-95
2023/07/04 06:27:37;;;;;;;3.78;2.38;;;;;;;22.04;65.06;100777.66;10372959;28;96635;-95
2023/07/04 06:32:43;;;;;;;4.55;2.42;;;;;;;22.10;65.06;100780.69;10371536;28;96742;-93
2023/07/04 06:37:50;;;;;;;3.03;2.13;;;;;;;22.19;64.66;100789.84;10374823;28;96698;-94
2023/07/04 06:42:56;;;;;;;3.65;1.98;;;;;;;22.21;64.76;100788.72;10374732;28;96656;-94
2023/07/04 06:48:04;;;;;;;3.65;2.75;;;;;;;22.09;65.33;100797.75;10369033;28;96466;-94
2023/07/04 06:58:58;;;;;;;5.53;2.30;;;;;;;22.17;65.17;100789.97;10337061;28;97384;-95
2023/07/04 07:04:16;;;;;;;3.70;2.50;;;;;;;22.23;65.07;100797.50;10337271;28;96514;-94
2023/07/04 07:09:26;;;;;;;4.68;2.80;;;;;;;22.25;65.34;100792.88;10333032;28;97143;-95
2023/07/04 07:14:37;;;;;;;3.13;2.20;;;;;;;22.31;65.35;100794.22;10375198;28;96763;-95
2023/07/04 07:19:53;;;;;;;3.50;2.10;;;;;;;22.33;65.56;100795.78;10375557;28;96696;-95
2023/07/04 07:25:04;;;;;;;4.78;2.53;;;;;;;22.47;64.98;100792.03;10373957;28;96941;-94
2023/07/04 07:30:11;;;;;;;4.10;2.42;;;;;;;22.46;65.34;100793.00;10367792;28;96706;-95
2023/07/04 07:35:18;;;;;;;3.63;2.30;;;;;;;22.41;65.68;100808.59;10351730;28;96711;-95
2023/07/04 07:40:26;;;;;;;3.85;2.47;;;;;;;22.14;66.87;100803.59;10346661;28;97589;-96
2023/07/04 07:45:35;;;;;;;3.67;2.70;;;;;;;22.40;65.79;100798.88;10366557;28;96598;-95
2023/07/04 07:50:46;;;;;;;4.93;2.67;;;;;;;22.36;66.37;100808.13;10333557;28;96858;-95
2023/07/04 07:55:55;;;;;;;3.72;2.50;;;;;;;22.27;66.32;100807.03;10342414;28;97279;-93
2023/07/04 08:01:00;;;;;;;3.70;2.35;;;;;;;22.53;66.07;100819.22;10341619;28;96647;-94
2023/07/04 08:06:05;;;;;;;3.53;2.33;;;;;;;22.59;66.14;100812.50;10301811;28;96801;-93
2023/07/04 08:11:16;;;;;;;;;;;;;;;22.34;67.43;100821.66;10302246;28;96572;-95
2023/07/04 08:16:25;;;;;;;4.15;2.40;;;;;;;22.30;66.93;100814.81;10303659;28;96549;-93
2023/07/04 08:21:30;;;;;;;4.40;2.40;;;;;;;22.23;67.03;100808.22;10306309;28;96543;-93
2023/07/04 08:26:37;;;;;;;;;;;;;;;22.53;66.66;100813.00;10316261;28;96642;-93
2023/07/04 08:31:43;;;;;;;3.47;2.33;;;;;;;22.96;65.43;100807.72;10322012;28;96666;-95
2023/07/04 08:36:50;;;;;;;2.60;1.98;;;;;;;23.07;64.84;100800.50;10322727;28;96857;-94
2023/07/04 08:42:03;;;;;;;2.80;1.88;;;;;;;23.93;63.20;100811.09;10322242;28;96684;-94
2023/07/04 08:47:11;;;;;;;3.20;1.80;;;;;;;23.93;63.10;100800.34;10324954;28;96798;-95
2023/07/04 08:52:46;;;;;;;3.25;2.08;;;;;;;24.14;61.78;100796.66;10339590;28;96625;-96
2023/07/04 08:58:00;;;;;;;2.65;1.88;;;;;;;24.30;61.32;100801.59;10385835;28;96691;-96
2023/07/04 09:03:29;;;;;;;2.80;1.80;;;;;;;23.99;61.58;100806.06;10375008;28;96663;-95
2023/07/04 09:09:00;;;;;;;3.23;1.90;;;;;;;24.69;58.59;100801.59;10372391;28;96824;-96
2023/07/04 09:14:23;;;;;;;3.15;2.17;;;;;;;24.83;58.54;100809.28;10375106;28;96632;-96
2023/07/04 09:19:37;;;;;;;2.95;2.03;;;;;;;24.52;59.86;100802.25;10353600;28;96789;-93
2023/07/04 09:24:42;;;;;;;2.83;1.77;;;;;;;24.98;58.04;100801.69;10353064;28;96696;-95
2023/07/04 09:29:52;;;;;;;3.63;2.10;;;;;;;25.39;56.91;100804.16;10345394;28;96746;-96
2023/07/04 09:35:03;;;;;;;2.72;1.90;;;;;;;25.32;56.16;100815.63;10347105;28;96742;-95
2023/07/04 09:40:09;;;;;;;3.08;1.73;;;;;;;25.36;55.63;100809.00;10342490;28;97063;-94
2023/07/04 09:45:23;;;;;;;3.20;2.17;;;;;;;25.96;54.23;100813.22;10341933;28;96843;-94
2023/07/04 09:50:29;;;;;;;2.83;1.80;;;;;;;26.14;54.01;100815.03;10350665;28;97025;-94
2023/07/04 09:55:34;;;;;;;2.85;1.98;;;;;;;26.09;53.78;100813.78;10340929;28;96618;-94
2023/07/04 10:00:42;;;;;;;3.22;2.20;;;;;;;26.08;52.71;100812.06;10334670;28;96742;-95
2023/07/04 10:05:50;;;;;;;2.50;2.10;;;;;;;26.08;51.64;100815.59;10299503;28;97604;-95
2023/07/04 10:10:59;;;;;;;2.80;2.20;;;;;;;26.45;51.41;100810.28;10298606;28;96646;-93
2023/07/04 10:16:22;;;;;;;3.20;2.40;;;;;;;26.35;49.53;100817.53;10301377;28;97497;-95
2023/07/04 10:21:28;;;;;;;3.17;2.27;;;;;;;26.29;51.19;100818.97;10303183;28;96670;-95
2023/07/04 10:26:32;;;;;;;3.20;2.25;;;;;;;26.38;50.86;100818.13;10299763;28;97067;-91
2023/07/04 10:31:40;;;;;;;2.88;2.08;;;;;;;26.45;50.09;100815.66;10298244;28;96799;-88
2023/07/04 10:36:48;;;;;;;3.10;2.20;;;;;;;26.41;50.50;100819.66;10300459;28;96936;-92
2023/07/04 10:41:58;;;;;;;3.67;2.38;;;;;;;26.66;50.08;100809.03;10301401;28;97853;-92
2023/07/04 10:47:08;;;;;;;2.72;2.25;;;;;;;26.75;49.52;100799.16;10299433;28;96598;-90
2023/07/04 10:52:18;;;;;;;3.88;2.30;;;;;;;26.81;49.07;100802.13;10316347;28;96668;-94
2023/07/04 10:57:28;;;;;;;3.53;2.22;;;;;;;27.09;48.40;100796.72;10341402;28;96835;-91
2023/07/04 11:02:40;;;;;;;3.75;2.40;;;;;;;27.18;47.88;100799.38;10343443;28;96793;-93
2023/07/04 11:07:45;;;;;;;3.65;2.50;;;;;;;27.09;48.54;100805.69;10341794;28;96906;-93
2023/07/04 11:12:54;;;;;;;3.40;2.40;;;;;;;27.31;48.01;100799.84;10304043;28;96866;-92
2023/07/04 11:18:05;;;;;;;3.65;2.67;;;;;;;27.39;47.41;100799.06;10303205;28;97977;-94
2023/07/04 11:23:16;;;;;;;3.65;2.50;;;;;;;27.45;46.33;100806.53;10303733;28;96774;-93
2023/07/04 11:28:43;;;;;;;2.97;2.15;;;;;;;27.88;46.22;100793.94;10304618;28;96605;-91
2023/07/04 11:34:12;;;;;;;3.55;2.47;;;;;;;28.09;45.22;100798.97;10303681;28;96683;-93
2023/07/04 11:39:36;;;;;;;3.67;3.03;;;;;;;28.31;44.33;100784.94;10299212;28;96660;-94
2023/07/04 11:44:56;;;;;;;5.25;2.88;;;;;;;28.26;43.85;100776.41;10330194;28;96654;-93
2023/07/04 11:50:10;;;;;;;4.82;2.95;;;;;;;28.47;44.03;100795.00;10319533;28;96901;-92
2023/07/04 11:55:25;;;;;;;4.22;2.75;;;;;;;28.32;43.57;100773.09;10304211;28;96683;-94
2023/07/04 12:01:03;;;;;;;4.82;3.35;;;;;;;28.59;42.49;100770.19;10320804;28;96849;-93
2023/07/04 12:06:10;;;;;;;4.13;2.80;;;;;;;28.49;43.03;100764.03;10350295;28;97418;-93
2023/07/04 12:11:22;;;;;;;4.45;2.72;;;;;;;29.01;42.96;100767.47;10351332;28;96689;-91
2023/07/04 12:16:28;;;;;;;4.57;2.85;;;;;;;28.84;42.84;100755.72;10348234;28;96848;-93
2023/07/04 12:21:35;;;;;;;4.28;2.88;;;;;;;29.11;42.46;100760.03;10314857;28;96942;-91
2023/07/04 12:26:43;;;;;;;3.95;2.92;;;;;;;29.17;42.47;100772.91;10310763;28;97153;-95
2023/07/04 12:31:47;;;;;;;4.22;3.15;;;;;;;28.88;41.87;100754.34;10309251;28;96711;-92
2023/07/04 12:37:05;;;;;;;4.72;3.20;;;;;;;29.44;41.91;100750.91;10314035;28;97588;-87
2023/07/04 12:42:19;;;;;;;5.15;2.95;;;;;;;29.45;40.92;100743.63;10312597;28;96687;-93
2023/07/04 12:47:26;;;;;;;4.43;3.10;;;;;;;29.49;40.54;100736.81;10318172;28;97932;-91
2023/07/04 12:52:41;;;;;;;3.80;3.15;;;;;;;29.56;40.09;100733.31;10350660;28;97689;-92
2023/07/04 12:57:49;;;;;;;4.78;3.20;;;;;;;29.63;40.66;100739.75;10355118;28;96641;-88
2023/07/04 13:02:54;;;;;;;4.75;3.13;;;;;;;29.75;39.94;100737.50;10349505;28;96695;-93
2023/07/04 13:08:22;;;;;;;4.65;3.17;;;;;;;29.97;39.40;100740.34;10340109;28;96650;-92
2023/07/04 13:13:38;;;;;;;4.20;3.20;;;;;;;29.99;38.49;100740.19;10312975;28;96798;-92
2023/07/04 13:18:47;;;;;;;4.32;3.40;;;;;;;30.14;39.31;100744.75;10313683;28;96645;-88
2023/07/04 13:23:51;;;;;;;4.25;3.17;;;;;;;30.30;39.17;100735.72;10325710;22;97447;-93
2023/07/04 13:29:00;;;;;;;5.15;3.58;;;;;;;30.42;38.56;100734.31;10353069;28;96778;-89
2023/07/04 13:34:15;;;;;;;4.97;3.35;;;;;;;30.37;38.36;100723.13;10353935;28;97019;-93
2023/07/04 13:39:20;;;;;;;5.05;3.53;;;;;;;30.36;38.06;100717.88;10351773;28;97654;-91
2023/07/04 13:44:45;;;;;;;3.78;2.75;;;;;;;30.50;36.88;100712.56;10367179;28;97277;-90
2023/07/04 13:49:52;;;;;;;4.38;2.78;;;;;;;30.40;36.92;100711.06;10347213;28;97365;-88
2023/07/04 13:54:57;;;;;;;3.78;2.95;;;;;;;30.57;36.89;100720.84;10353283;28;96679;-91
2023/07/04 14:00:00;;;;;;;3.35;2.40;;;;;;;30.68;35.97;100717.75;10351502;28;96712;-89
2023/07/04 14:05:04;;;;;;;;;;;;;;;30.82;35.51;100708.84;10356954;28;96759;-93
2023/07/04 14:10:14;;;;;;;3.10;2.15;;;;;;;30.68;34.80;100706.91;10350837;28;97215;-91
2023/07/04 14:15:37;;;;;;;3.50;1.98;;;;;;;30.81;35.79;100699.00;10358682;28;96626;-90
2023/07/04 14:20:44;;;;;;;2.78;2.00;;;;;;;30.81;35.90;100696.28;10386293;28;97076;-92
2023/07/04 14:26:00;;;;;;;2.65;2.30;;;;;;;30.54;36.74;100700.28;10349500;28;96632;-88
2023/07/04 14:31:07;;;;;;;3.03;2.10;;;;;;;30.80;36.95;100702.75;10349527;28;97333;-93
2023/07/04 14:36:11;;;;;;;3.20;2.38;;;;;;;30.79;38.22;100698.31;10350612;28;97566;-91
2023/07/04 14:41:19;;;;;;;3.30;2.40;;;;;;;30.42;39.29;100699.00;10348907;28;97008;-90
2023/07/04 14:46:29;;;;;;;3.20;2.08;;;;;;;30.47;40.30;100691.19;10350364;28;96838;-89
2023/07/04 14:51:34;;;;;;;2.42;1.80;;;;;;;30.33;41.09;100696.50;10346973;28;96790;-91
2023/07/04 14:56:41;;;;;;;2.47;2.00;;;;;;;30.50;41.10;100685.38;10350208;28;96602;-93
2023/07/04 15:01:53;;;;;;;2.90;1.70;;;;;;;30.09;41.57;100695.56;10346246;28;96662;-94
2023/07/04 15:06:59;;;;;;;2.38;1.50;;;;;;;30.35;41.24;100686.31;10355666;28;96748;-91
2023/07/04 15:12:07;;;;;;;2.20;1.77;;;;;;;30.12;42.15;100683.53;10387603;28;97122;-91
2023/07/04 15:17:12;;;;;;;2.55;1.70;;;;;;;30.23;41.54;100680.41;10389084;28;96642;-90
2023/07/04 15:22:18;;;;;;;3.33;1.75;;;;;;;30.18;42.22;100680.09;10366523;28;96763;-93
2023/07/04 15:27:25;;;;;;;2.03;1.30;;;;;;;30.39;41.66;100668.63;10382313;28;96879;-92
2023/07/04 15:32:30;;;;;;;2.70;1.50;;;;;;;29.94;42.25;100675.56;10388268;28;96928;-93
2023/07/04 15:37:37;;;;;;;2.30;1.45;;;;;;;30.19;42.15;100665.50;10389191;28;96579;-91
2023/07/04 15:42:51;;;;;;;2.45;1.40;;;;;;;30.00;42.41;100664.03;10362899;28;96755;-89
2023/07/04 15:47:59;;;;;;;2.60;1.60;;;;;;;30.01;42.36;100654.00;10344329;28;96568;-93
2023/07/04 15:53:06;;;;;;;2.00;1.40;;;;;;;30.11;42.23;100649.22;10346430;28;96856;-93
2023/07/04 15:58:14;;;;;;;2.75;1.42;;;;;;;29.95;42.99;100652.81;10354938;28;96715;-93
2023/07/04 16:03:19;;;;;;;1.83;1.50;;;;;;;29.76;43.25;100652.41;10384728;28;96698;-87
2023/07/04 16:08:23;;;;;;;2.15;1.38;;;;;;;29.63;43.17;100652.06;10385790;28;96645;-94
2023/07/04 16:13:31;;;;;;;1.48;1.10;;;;;;;29.46;44.17;100650.38;10384823;28;96585;-92
2023/07/04 16:18:37;;;;;;;1.67;1.42;;;;;;;29.41;43.92;100645.50;10385210;28;96890;-92
2023/07/04 16:23:43;;;;;;;2.45;1.25;;;;;;;29.36;43.81;100642.44;10385109;28;96893;-88
2023/07/04 16:28:51;;;;;;;4.43;1.38;;;;;;;29.13;44.56;100636.88;10384455;28;97491;-92
2023/07/04 16:33:58;;;;;;;3.15;1.60;;;;;;;29.06;44.53;100637.72;10383487;28;97525;-90
2023/07/04 16:39:03;;;;;;;1.20;0.90;;;;;;;28.82;45.15;100643.94;10383309;28;96654;-93
2023/07/04 16:44:09;;;;;;;2.65;1.55;;;;;;;28.74;45.68;100646.63;10382284;28;97628;-88
2023/07/04 16:49:14;;;;;;;2.72;1.77;;;;;;;28.69;45.72;100649.00;10377323;28;96736;-88
2023/07/04 16:54:22;;;;;;;2.28;1.70;;;;;;;28.57;46.03;100644.91;10349045;28;96569;-88
2023/07/04 16:59:32;;;;;;;3.10;1.83;;;;;;;28.66;47.22;100649.31;10348989;28;97294;-91
2023/07/04 17:04:38;;;;;;;2.70;1.55;;;;;;;28.47;46.82;100633.38;10347526;28;96631;-91
2023/07/04 17:09:44;;;;;;;1.95;1.27;;;;;;;28.44;47.38;100640.97;10386082;28;96759;-92
2023/07/04 17:14:51;;;;;;;2.13;1.27;;;;;;;28.40;48.05;100626.94;10387415;28;96696;-92
2023/07/04 17:19:56;;;;;;;2.55;1.25;;;;;;;28.12;48.15;100632.75;10386424;28;96768;-93
2023/07/04 17:25:01;;;;;;;2.08;1.00;;;;;;;27.96;48.58;100636.22;10346865;28;96720;-86
2023/07/04 17:30:19;;;;;;;2.47;1.00;;;;;;;28.30;48.48;100637.06;10347197;28;96589;-92
2023/07/04 17:35:23;;;;;;;1.48;0.77;;;;;;;28.08;48.67;100635.75;10347108;28;96695;-88
2023/07/04 17:40:29;;;;;;;1.50;0.60;;;;;;;27.82;49.19;100632.25;10360334;28;96933;-90
2023/07/04 17:45:35;;;;;;;1.60;0.70;;;;;;;28.19;48.98;100640.03;10389605;28;96690;-92
2023/07/04 17:50:39;;;;;;;1.55;0.75;;;;;;;27.77;49.23;100642.72;10387252;28;97208;-93
2023/07/04 17:55:45;;;;;;;1.00;0.50;;;;;;;27.84;49.37;100641.06;10384947;28;97468;-91
2023/07/04 18:00:51;;;;;;;1.40;0.50;;;;;;;27.89;49.74;100643.28;10343265;28;97012;-91
2023/07/04 18:05:58;;;;;;;0.80;0.65;;;;;;;27.63;49.94;100642.44;10346227;28;96628;-91
2023/07/04 18:11:05;;;;;;;1.70;0.80;;;;;;;27.60;49.94;100642.72;10346310;28;96869;-95
2023/07/04 18:16:13;;;;;;;2.05;0.63;;;;;;;27.41;50.70;100654.63;10370821;28;96761;-89
2023/07/04 18:21:20;;;;;;;1.10;0.60;;;;;;;27.28;51.33;100647.94;10371890;28;96757;-93
2023/07/04 18:26:24;;;;;;;1.02;0.68;;;;;;;27.39;50.98;100653.09;10340478;28;96712;-91
2023/07/04 18:31:30;;;;;;;1.35;0.60;;;;;;;27.03;51.33;100654.16;10343333;28;97253;-87
2023/07/04 18:36:35;;;;;;;0.93;0.60;;;;;;;26.95;52.14;100658.47;10344115;28;96720;-91
2023/07/04 18:41:40;;;;;;;1.30;0.75;;;;;;;26.94;51.92;100667.53;10343551;28;96667;-87
2023/07/04 18:46:46;;;;;;;0.93;0.52;;;;;;;26.79;52.73;100663.69;10343227;28;97050;-90
2023/07/04 18:51:51;;;;;;;1.45;0.60;;;;;;;26.62;52.54;100672.63;10336443;28;96686;-90
2023/07/04 18:56:55;;;;;;;1.50;0.80;;;;;;;26.37;53.23;100677.94;10341398;28;96780;-91
2023/07/04 19:02:05;;;;;;;1.60;0.52;;;;;;;26.23;53.33;100676.53;10342680;28;96791;-93
2023/07/04 19:07:09;;;;;;;1.65;0.70;;;;;;;26.20;53.82;100682.22;10370968;28;96856;-92
2023/07/04 19:12:13;;;;;;;1.00;0.50;;;;;;;26.12;53.74;100689.38;10383239;28;98365;-94
2023/07/04 19:17:20;;;;;;;2.35;0.60;;;;;;;26.16;54.23;100693.47;10381816;28;96837;-89
2023/07/04 19:22:25;;;;;;;0.85;0.40;;;;;;;25.92;54.77;100696.69;10360737;28;96921;-92
2023/07/04 19:27:31;;;;;;;0.98;0.55;;;;;;;25.80;54.86;100708.66;10342952;28;96723;-91
2023/07/04 19:32:37;;;;;;;1.63;0.80;;;;;;;25.55;55.38;100707.38;10343284;28;96774;-91
2023/07/04 19:37:42;;;;;;;1.13;0.60;;;;;;;25.60;55.29;100698.88;10340851;28;97954;-92
2023/07/04 19:42:47;;;;;;;3.15;0.82;;;;;;;25.50;55.58;100709.69;10383689;28;96819;-84
2023/07/04 19:47:55;;;;;;;2.70;0.95;;;;;;;25.48;55.91;100710.84;10386223;28;96723;-88
2023/07/04 19:53:00;;;;;;;1.38;0.68;;;;;;;25.26;56.35;100714.66;10388791;28;96823;-90
2023/07/04 19:58:04;;;;;;;1.45;0.63;;;;;;;25.17;56.60;100734.41;10386168;28;96786;-92
2023/07/04 20:03:11;;;;;;;0.80;0.52;;;;;;;25.24;56.45;100740.06;10386361;28;96639;-89
2023/07/04 20:08:18;;;;;;;2.25;0.90;;;;;;;25.16;56.78;100737.22;10385905;28;96903;-94
2023/07/04 20:13:24;;;;;;;2.25;1.30;;;;;;;24.78;57.67;100740.69;10385242;28;96806;-87
2023/07/04 20:18:32;;;;;;;2.13;1.25;;;;;;;24.82;57.58;100763.66;10383704;28;96915;-91
2023/07/04 20:23:38;;;;;;;2.00;1.23;;;;;;;24.62;57.97;100760.06;10358355;28;96860;-90
2023/07/04 20:28:43;;;;;;;1.67;1.05;;;;;;;24.59;57.49;100768.44;10353022;28;96903;-92
2023/07/04 20:33:54;;;;;;;3.45;1.40;;;;;;;24.52;57.66;100767.28;10316321;28;96636;-93
2023/07/04 20:38:58;;;;;;;3.58;1.50;;;;;;;24.42;57.83;100777.16;10312287;28;96628;-92
2023/07/04 20:44:04;;;;;;;2.22;1.20;;;;;;;24.46;57.72;100781.25;10316932;28;96585;-94
2023/07/04 20:49:10;;;;;;;3.13;1.45;;;;;;;24.40;57.76;100797.97;10344905;28;96988;-94
2023/07/04 20:54:15;;;;;;;2.28;1.40;;;;;;;24.38;57.62;100805.31;10356618;28;96621;-94
2023/07/04 20:59:20;;;;;;;4.43;1.30;;;;;;;24.22;58.13;100825.59;10357553;28;96727;-95
2023/07/04 21:04:31;;;;;;;2.13;1.48;;;;;;;24.18;58.17;100838.44;10355648;28;97004;-91
2023/07/04 21:09:35;;;;;;;3.10;1.20;;;;;;;24.08;58.21;100834.00;10356171;28;96634;-92
2023/07/04 21:14:41;;;;;;;3.40;1.42;;;;;;;24.01;58.32;100844.44;10356017;28;96529;-95
2023/07/04 21:19:50;;;;;;;1.88;1.20;;;;;;;23.88;58.68;100845.59;10354873;28;97402;-96
2023/07/04 21:24:55;;;;;;;2.38;1.38;;;;;;;23.89;58.60;100837.44;10353142;28;96970;-88
2023/07/04 21:30:00;;;;;;;2.03;1.20;;;;;;;23.86;58.67;100852.97;10356205;28;96661;-94
2023/07/04 21:35:08;;;;;;;3.17;1.25;;;;;;;23.77;58.43;100864.50;10357250;28;96831;-94
2023/07/04 21:40:13;;;;;;;2.78;1.20;;;;;;;23.55;59.24;100868.97;10380797;28;97335;-94
2023/07/04 21:45:22;;;;;;;2.03;1.30;;;;;;;23.54;59.29;100861.03;10401641;28;97387;-95
2023/07/04 21:50:30;;;;;;;2.20;1.35;;;;;;;23.15;60.63;100870.53;10376436;28;97721;-93
2023/07/04 21:55:34;;;;;;;2.72;1.30;;;;;;;23.16;60.32;100868.69;10370607;28;96647;-94
2023/07/04 22:00:40;;;;;;;2.65;1.30;;;;;;;23.05;60.47;100877.63;10394910;28;96643;-93
2023/07/04 22:05:47;;;;;;;2.88;1.48;;;;;;;23.27;60.28;100877.56;10404260;28;96731;-94
2023/07/04 22:10:57;;;;;;;2.92;1.17;;;;;;;23.11;60.52;100884.34;10400299;28;96614;-93
2023/07/04 22:16:03;;;;;;;1.90;1.00;;;;;;;23.14;60.29;100876.88;10352438;28;97716;-96
2023/07/04 22:21:13;;;;;;;1.80;1.00;;;;;;;23.27;60.22;100880.25;10362610;28;97537;-92
2023/07/04 22:26:20;;;;;;;3.08;1.30;;;;;;;23.20;60.38;100880.91;10365576;28;96667;-94
2023/07/04 22:31:25;;;;;;;1.80;1.17;;;;;;;23.13;60.83;100879.69;10387754;28;96528;-94
2023/07/04 22:36:32;;;;;;;2.28;1.20;;;;;;;23.03;61.13;100882.25;10395133;28;96674;-92
2023/07/04 22:41:37;;;;;;;2.03;1.02;;;;;;;22.91;61.75;100879.69;10395313;28;96593;-94
2023/07/04 22:46:42;;;;;;;2.08;1.33;;;;;;;22.88;61.58;100874.59;10395168;28;97139;-94
2023/07/04 22:51:50;;;;;;;1.45;1.13;;;;;;;22.86;61.58;100871.16;10398052;28;96633;-94
2023/07/04 22:56:57;;;;;;;1.70;1.10;;;;;;;22.67;62.13;100869.09;10396538;28;96817;-94
2023/07/04 23:02:03;;;;;;;3.47;1.30;;;;;;;22.76;61.76;100870.19;10402140;28;96855;-94
2023/07/04 23:07:11;;;;;;;1.95;1.17;;;;;;;22.60;62.31;100865.19;10354585;28;96889;-95
2023/07/04 23:12:15;;;;;;;3.13;1.48;;;;;;;22.58;62.00;100865.31;10361362;28;96878;-94
2023/07/04 23:17:20;;;;;;;2.75;1.17;;;;;;;22.56;62.24;100856.53;10357164;28;96684;-92
2023/07/04 23:22:32;;;;;;;2.80;1.20;;;;;;;22.60;62.22;100855.31;10361997;28;96941;-93
2023/07/04 23:27:38;;;;;;;2.10;1.23;;;;;;;22.63;61.73;100848.00;10361839;28;96675;-94
2023/07/04 23:32:45;;;;;;;2.40;1.40;;;;;;;22.65;61.91;100849.56;10366274;28;96660;-95
2023/07/04 23:37:54;;;;;;;1.65;1.20;;;;;;;22.65;61.81;100841.53;10363714;28;96612;-95
2023/07/04 23:42:59;;;;;;;2.53;1.20;;;;;;;22.41;62.55;100836.28;10368786;28;96638;-94
2023/07/04 23:48:04;;;;;;;2.20;1.50;;;;;;;22.61;62.04;100835.53;10369364;28;96587;-94